createdAt,value
2018-12-09T00:00:01.255Z,98103.27
2018-12-09T00:01:37.881Z,98081.69
2018-12-09T00:03:21.329Z,98077.41
2018-12-09T00:04:57.123Z,98078.78
2018-12-09T00:06:36.122Z,98110.45
2018-12-09T00:10:19.744Z,98064.05
2018-12-09T00:11:56.806Z,98029.49
2018-12-09T00:13:33.611Z,98051.07
2018-12-09T00:15:29.612Z,98040.58
2018-12-09T00:17:09.855Z,98051.84
2018-12-09T00:18:47.095Z,98042.52
2018-12-09T00:20:26.999Z,98038.23
2018-12-09T00:22:26.563Z,98015.16
2018-12-09T00:24:05.763Z,97997.89
2018-12-09T00:25:44.873Z,98021.17
2018-12-09T00:27:27.629Z,98001.72
2018-12-09T00:29:07.844Z,97993.97
2018-12-09T00:30:54.238Z,97986.02
2018-12-09T00:32:54.878Z,97978.25
2018-12-09T00:34:30.727Z,97965.23
2018-12-09T00:36:08.172Z,97958.09
2018-12-09T00:37:47.875Z,97965.45
2018-12-09T00:39:30.138Z,97956.73
2018-12-09T00:44:08.683Z,97926.08
2018-12-09T00:45:51.209Z,97914.63
2018-12-09T00:49:33.327Z,97909.77
2018-12-09T00:51:12.925Z,97919.47
2018-12-09T00:54:59.547Z,97896.00
2018-12-09T00:56:37.604Z,97923.16
2018-12-09T00:58:17.132Z,97929.16
2018-12-09T00:59:52.630Z,97928.37
2018-12-09T01:01:30.942Z,97944.28
2018-12-09T01:03:07.768Z,97927.21
2018-12-09T01:04:45.273Z,97905.68
2018-12-09T01:06:21.241Z,97947.59
2018-12-09T01:08:01.044Z,97964.48
2018-12-09T01:09:36.895Z,97929.75
2018-12-09T01:11:13.697Z,97951.07
2018-12-09T01:12:50.853Z,97948.97
2018-12-09T01:14:38.447Z,97958.64
2018-12-09T01:18:12.466Z,97967.77
2018-12-09T01:19:58.234Z,97948.16
2018-12-09T01:21:36.130Z,97960.20
2018-12-09T01:23:12.299Z,97963.11
2018-12-09T01:24:50.713Z,97965.43
2018-12-09T01:26:29.139Z,97970.28
2018-12-09T01:28:17.906Z,97964.47
2018-12-09T01:29:54.440Z,97955.93
2018-12-09T01:31:33.945Z,97985.43
2018-12-09T01:33:11.062Z,97974.37
2018-12-09T01:34:48.221Z,97992.02
2018-12-09T01:36:23.845Z,97980.19
2018-12-09T01:38:00.543Z,97986.39
2018-12-09T01:39:37.893Z,97972.81
2018-12-09T01:41:15.850Z,97986.41
2018-12-09T01:42:56.879Z,98005.05
2018-12-09T01:44:37.793Z,97994.73
2018-12-09T01:46:13.479Z,97971.64
2018-12-09T01:47:50.141Z,98002.92
2018-12-09T01:52:29.946Z,98081.93
2018-12-09T01:54:15.291Z,98053.98
2018-12-09T01:55:51.476Z,98054.33
2018-12-09T01:57:30.040Z,98037.05
2018-12-09T01:59:06.550Z,98056.84
2018-12-09T02:00:42.109Z,98049.27
2018-12-09T02:02:21.844Z,98047.16
2018-12-09T02:04:16.803Z,98034.92
2018-12-09T02:07:14.250Z,98046.56
2018-12-09T02:11:35.875Z,98066.53
2018-12-09T02:13:11.300Z,98047.70
2018-12-09T02:14:48.388Z,98029.27
2018-12-09T02:16:26.721Z,98038.22
2018-12-09T02:18:02.658Z,98042.67
2018-12-09T02:19:38.689Z,98033.55
2018-12-09T02:21:15.310Z,98023.27
2018-12-09T02:22:59.094Z,97995.70
2018-12-09T02:24:42.058Z,97981.73
2018-12-09T02:26:18.422Z,97991.63
2018-12-09T02:27:56.332Z,97985.99
2018-12-09T02:29:32.597Z,97993.95
2018-12-09T02:31:09.073Z,98000.35
2018-12-09T02:32:44.943Z,98024.81
2018-12-09T02:34:20.802Z,98003.28
2018-12-09T02:35:56.061Z,97999.39
2018-12-09T02:37:31.625Z,98025.01
2018-12-09T02:39:08.404Z,98001.72
2018-12-09T02:40:43.886Z,98023.06
2018-12-09T02:42:20.210Z,98009.69
2018-12-09T02:43:56.295Z,98004.83
2018-12-09T02:45:34.637Z,98009.48
2018-12-09T02:47:11.548Z,98008.70
2018-12-09T02:48:47.499Z,98009.67
2018-12-09T02:50:25.217Z,97996.69
2018-12-09T02:52:00.361Z,98015.11
2018-12-09T02:53:35.958Z,97967.95
2018-12-09T02:55:11.905Z,97971.80
2018-12-09T02:59:28.936Z,97892.88
2018-12-09T03:01:04.891Z,97935.70
2018-12-09T03:02:43.184Z,97938.80
2018-12-09T03:04:19.502Z,97935.31
2018-12-09T03:05:57.630Z,97944.41
2018-12-09T03:07:33.695Z,97957.38
2018-12-09T03:09:12.871Z,97938.77
2018-12-09T03:10:48.860Z,97923.09
2018-12-09T03:12:24.454Z,97944.42
2018-12-09T03:13:59.763Z,97941.30
2018-12-09T03:15:34.950Z,97940.34
2018-12-09T03:17:17.037Z,97918.85
2018-12-09T03:19:10.194Z,97924.23
2018-12-09T03:20:57.785Z,97896.68
2018-12-09T03:22:38.772Z,97902.88
2018-12-09T03:24:14.855Z,97909.48
2018-12-09T03:25:51.020Z,97896.12
2018-12-09T03:27:27.288Z,97911.02
2018-12-09T03:29:03.370Z,97915.87
2018-12-09T03:30:39.154Z,97934.66
2018-12-09T03:32:17.044Z,97926.91
2018-12-09T03:33:54.074Z,97898.55
2018-12-09T03:35:30.719Z,97846.19
2018-12-09T03:37:05.994Z,97820.78
2018-12-09T03:38:45.935Z,97806.44
2018-12-09T03:40:23.017Z,97815.94
2018-12-09T03:41:58.589Z,97829.91
2018-12-09T03:43:34.491Z,97841.92
2018-12-09T03:45:10.232Z,97826.23
2018-12-09T03:46:46.798Z,97845.40
2018-12-09T03:48:22.034Z,97827.02
2018-12-09T03:49:59.340Z,97837.43
2018-12-09T03:51:35.130Z,97825.03
2018-12-09T03:53:10.602Z,97826.16
2018-12-09T03:54:46.840Z,97817.05
2018-12-09T03:56:27.064Z,97813.02
2018-12-09T03:58:03.393Z,97814.77
2018-12-09T03:59:39.056Z,97812.26
2018-12-09T04:01:15.040Z,97813.84
2018-12-09T04:02:51.120Z,97811.92
2018-12-09T04:04:29.254Z,97833.84
2018-12-09T04:06:08.530Z,97835.82
2018-12-09T04:07:44.970Z,97848.60
2018-12-09T04:09:31.551Z,97854.82
2018-12-09T04:11:13.815Z,97857.72
2018-12-09T04:12:51.609Z,97854.66
2018-12-09T04:14:29.718Z,97852.92
2018-12-09T04:16:42.666Z,97850.97
2018-12-09T04:18:27.522Z,97849.80
2018-12-09T04:20:32.437Z,97828.27
2018-12-09T04:22:15.636Z,97809.05
2018-12-09T04:23:51.891Z,97810.97
2018-12-09T04:25:30.381Z,97800.89
2018-12-09T04:27:10.285Z,97796.61
2018-12-09T04:28:47.031Z,97792.33
2018-12-09T04:30:37.426Z,97790.00
2018-12-09T04:32:23.598Z,97779.17
2018-12-09T04:34:01.415Z,97781.50
2018-12-09T04:35:47.337Z,97774.69
2018-12-09T04:37:23.098Z,97772.36
2018-12-09T04:39:21.561Z,97770.63
2018-12-09T04:41:06.877Z,97770.06
2018-12-09T04:43:26.377Z,97771.44
2018-12-09T04:45:07.914Z,97757.70
2018-12-09T04:46:46.241Z,97755.55
2018-12-09T04:48:27.776Z,97764.45
2018-12-09T04:50:03.484Z,97758.66
2018-12-09T04:52:01.154Z,97767.19
2018-12-09T04:53:38.090Z,97766.83
2018-12-09T04:55:13.939Z,97762.75
2018-12-09T04:56:50.719Z,97780.58
2018-12-09T04:58:29.887Z,97788.92
2018-12-09T05:00:21.767Z,97773.05
2018-12-09T05:02:07.463Z,97770.73
2018-12-09T05:03:44.522Z,97774.80
2018-12-09T05:05:30.406Z,97777.70
2018-12-09T05:07:18.954Z,97784.48
2018-12-09T05:09:16.104Z,97770.34
2018-12-09T05:10:56.447Z,97751.38
2018-12-09T05:12:32.487Z,97773.63
2018-12-09T05:14:14.641Z,97786.02
2018-12-09T05:15:50.189Z,97767.42
2018-12-09T05:17:36.219Z,97779.05
2018-12-09T05:19:11.356Z,97783.29
2018-12-09T05:20:47.491Z,97776.53
2018-12-09T05:22:22.980Z,97776.53
2018-12-09T05:23:59.081Z,97780.41
2018-12-09T05:25:34.474Z,97731.63
2018-12-09T05:27:10.751Z,97794.53
2018-12-09T05:28:47.087Z,97800.15
2018-12-09T05:30:23.459Z,97795.70
2018-12-09T05:31:58.752Z,97805.78
2018-12-09T05:33:34.618Z,97805.78
2018-12-09T05:35:10.801Z,97801.70
2018-12-09T05:36:46.490Z,97785.64
2018-12-09T05:38:23.797Z,97801.91
2018-12-09T05:39:59.076Z,97799.19
2018-12-09T05:41:35.803Z,97801.13
2018-12-09T05:43:10.944Z,97798.03
2018-12-09T05:44:47.429Z,97798.23
2018-12-09T05:46:24.292Z,97806.37
2018-12-09T05:48:00.748Z,97806.95
2018-12-09T05:49:37.740Z,97802.30
2018-12-09T05:51:24.278Z,97791.08
2018-12-09T05:53:01.186Z,97785.66
2018-12-09T05:54:39.839Z,97786.05
2018-12-09T05:56:19.818Z,97789.73
2018-12-09T05:57:57.195Z,97785.27
2018-12-09T06:00:36.169Z,97774.61
2018-12-09T06:02:22.914Z,97758.34
2018-12-09T06:03:58.664Z,97756.40
2018-12-09T06:05:39.617Z,97766.08
2018-12-09T06:07:16.792Z,97778.48
2018-12-09T06:08:52.602Z,97783.33
2018-12-09T06:10:39.527Z,97784.50
2018-12-09T06:14:35.917Z,97824.19
2018-12-09T06:16:11.861Z,97819.36
2018-12-09T06:17:48.348Z,97810.66
2018-12-09T06:19:28.728Z,97811.44
2018-12-09T06:21:04.775Z,97806.80
2018-12-09T06:22:41.430Z,97813.94
2018-12-09T06:24:18.771Z,97808.71
2018-12-09T06:25:54.547Z,97811.23
2018-12-09T06:27:32.211Z,97814.73
2018-12-09T06:29:09.160Z,97787.41
2018-12-09T06:30:44.952Z,97815.11
2018-12-09T06:32:20.357Z,97812.39
2018-12-09T06:33:56.058Z,97803.48
2018-12-09T06:35:32.161Z,97807.75
2018-12-09T06:37:10.017Z,97809.88
2018-12-09T06:38:47.735Z,97820.53
2018-12-09T06:40:23.271Z,97812.00
2018-12-09T06:42:00.705Z,97810.86
2018-12-09T06:43:41.285Z,97815.89
2018-12-09T06:45:17.541Z,97803.48
2018-12-09T06:46:52.687Z,97810.66
2018-12-09T06:48:30.058Z,97789.17
2018-12-09T06:50:07.917Z,97814.92
2018-12-09T06:51:43.530Z,97806.59
2018-12-09T06:53:26.562Z,97803.30
2018-12-09T06:55:02.310Z,97814.92
2018-12-09T06:56:42.818Z,97808.14
2018-12-09T06:58:18.538Z,97778.90
2018-12-09T06:59:54.803Z,97794.59
2018-12-09T07:01:30.819Z,97772.69
2018-12-09T07:03:09.124Z,97795.55
2018-12-09T07:04:45.176Z,97804.27
2018-12-09T07:06:20.615Z,97804.27
2018-12-09T07:07:56.909Z,97808.34
2018-12-09T07:09:34.578Z,97808.53
2018-12-09T07:11:10.246Z,97803.29
2018-12-09T07:12:46.503Z,97805.42
2018-12-09T07:14:23.186Z,97799.80
2018-12-09T07:15:59.109Z,97801.94
2018-12-09T07:17:34.940Z,97820.16
2018-12-09T07:19:10.395Z,97824.23
2018-12-09T07:20:45.805Z,97820.94
2018-12-09T07:22:21.294Z,97824.62
2018-12-09T07:23:59.125Z,97845.56
2018-12-09T07:25:35.463Z,97843.81
2018-12-09T07:27:10.800Z,97853.89
2018-12-09T07:28:47.141Z,97819.42
2018-12-09T07:30:24.367Z,97854.85
2018-12-09T07:32:00.201Z,97859.50
2018-12-09T07:33:35.812Z,97847.30
2018-12-09T07:35:12.583Z,97867.64
2018-12-09T07:38:48.062Z,97868.23
2018-12-09T07:40:25.883Z,97897.30
2018-12-09T07:42:03.785Z,97900.02
2018-12-09T07:43:42.073Z,97883.35
2018-12-09T07:45:18.982Z,97896.34
2018-12-09T07:46:55.215Z,97879.68
2018-12-09T07:48:32.288Z,97888.39
2018-12-09T07:50:13.134Z,97877.16
2018-12-09T07:52:02.523Z,97888.23
2018-12-09T07:53:47.865Z,97902.55
2018-12-09T07:55:25.555Z,97903.13
2018-12-09T07:57:10.956Z,97903.91
2018-12-09T08:11:33.105Z,97948.87
2018-12-09T08:14:53.730Z,97983.98
2018-12-09T08:16:33.157Z,97958.97
2018-12-09T08:20:42.200Z,98011.91
2018-12-09T08:25:09.638Z,98020.63
2018-12-09T08:26:45.697Z,97990.56
2018-12-09T08:28:24.023Z,98002.59
2018-12-09T08:30:00.392Z,97997.77
2018-12-09T08:31:36.713Z,97990.20
2018-12-09T08:33:33.162Z,97979.15
2018-12-09T08:35:16.025Z,97979.73
2018-12-09T08:36:56.103Z,97959.75
2018-12-09T08:38:31.221Z,97966.16
2018-12-09T08:40:06.809Z,97967.31
2018-12-09T08:41:42.720Z,97966.16
2018-12-09T08:43:18.155Z,97953.75
2018-12-09T08:44:53.600Z,97960.16
2018-12-09T08:46:31.469Z,97958.23
2018-12-09T08:48:10.396Z,97942.14
2018-12-09T08:49:47.760Z,97921.20
2018-12-09T08:51:23.175Z,97946.03
2018-12-09T08:52:58.353Z,97947.97
2018-12-09T08:54:34.457Z,97940.98
2018-12-09T08:56:09.603Z,97944.86
2018-12-09T08:57:44.847Z,97925.28
2018-12-09T08:59:20.402Z,97921.97
2018-12-09T09:00:55.542Z,97938.47
2018-12-09T09:02:35.692Z,97922.56
2018-12-09T09:04:11.704Z,97916.95
2018-12-09T09:05:46.814Z,97914.81
2018-12-09T09:07:23.793Z,97914.62
2018-12-09T09:09:01.330Z,97907.25
2018-12-09T09:10:36.424Z,97908.03
2018-12-09T09:12:12.088Z,97896.97
2018-12-09T09:13:48.518Z,97900.47
2018-12-09T09:15:24.183Z,97904.13
2018-12-09T09:16:59.396Z,97893.27
2018-12-09T09:18:34.417Z,97889.39
2018-12-09T09:20:09.473Z,97888.42
2018-12-09T09:21:46.285Z,97879.31
2018-12-09T09:23:23.235Z,97880.09
2018-12-09T09:24:58.264Z,97884.55
2018-12-09T09:26:33.241Z,97877.39
2018-12-09T09:28:08.356Z,97872.73
2018-12-09T09:29:43.395Z,97857.61
2018-12-09T09:31:19.430Z,97866.92
2018-12-09T09:32:57.052Z,97861.69
2018-12-09T09:34:44.846Z,97865.18
2018-12-09T09:36:33.656Z,97856.05
2018-12-09T09:38:15.946Z,97851.03
2018-12-09T09:39:51.516Z,97845.41
2018-12-09T09:41:26.881Z,97841.53
2018-12-09T09:43:06.277Z,97843.45
2018-12-09T09:44:42.868Z,97830.28
2018-12-09T09:46:19.524Z,97832.20
2018-12-09T09:47:54.612Z,97826.59
2018-12-09T09:49:31.637Z,97832.61
2018-12-09T09:51:08.188Z,97810.31
2018-12-09T09:52:44.071Z,97817.09
2018-12-09T09:54:21.846Z,97808.36
2018-12-09T09:55:57.106Z,97804.09
2018-12-09T09:57:32.814Z,97807.20
2018-12-09T09:59:12.290Z,97804.88
2018-12-09T10:00:48.453Z,97800.61
2018-12-09T10:02:23.652Z,97786.84
2018-12-09T10:04:00.948Z,97779.87
2018-12-09T10:05:42.316Z,97790.14
2018-12-09T10:07:18.926Z,97794.59
2018-12-09T10:08:58.759Z,97784.52
2018-12-09T10:10:45.885Z,97777.95
2018-12-09T10:14:39.835Z,97761.86
2018-12-09T10:16:24.806Z,97763.61
2018-12-09T10:19:57.966Z,97740.73
2018-12-09T10:21:37.739Z,97741.12
2018-12-09T10:23:26.554Z,97752.75
2018-12-09T10:29:25.432Z,97774.66
2018-12-09T10:31:10.055Z,97761.66
2018-12-09T10:32:46.561Z,97743.61
2018-12-09T10:34:23.430Z,97740.15
2018-12-09T10:36:13.595Z,97735.69
2018-12-09T10:37:53.556Z,97728.72
2018-12-09T10:39:33.377Z,97738.60
2018-12-09T10:41:11.111Z,97726.77
2018-12-09T10:42:50.193Z,97733.36
2018-12-09T10:44:27.983Z,97735.69
2018-12-09T10:46:05.482Z,97726.96
2018-12-09T10:47:41.272Z,97718.45
2018-12-09T10:49:17.475Z,97719.04
2018-12-09T10:50:54.632Z,97725.24
2018-12-09T10:52:31.515Z,97721.37
2018-12-09T10:54:08.475Z,97718.24
2018-12-09T10:55:44.923Z,97712.03
2018-12-09T10:57:21.865Z,97722.50
2018-12-09T10:59:02.803Z,97709.72
2018-12-09T11:00:47.869Z,97704.51
2018-12-09T11:02:24.155Z,97701.96
2018-12-09T11:04:02.599Z,97705.84
2018-12-09T11:05:39.331Z,97705.26
2018-12-09T11:07:16.127Z,97698.48
2018-12-09T11:08:52.404Z,97705.27
2018-12-09T11:10:28.847Z,97699.25
2018-12-09T11:12:05.398Z,97710.08
2018-12-09T11:13:44.627Z,97695.16
2018-12-09T11:15:21.190Z,97691.86
2018-12-09T11:16:58.031Z,97698.84
2018-12-09T11:18:35.642Z,97706.59
2018-12-09T11:20:13.132Z,97707.53
2018-12-09T11:21:49.504Z,97711.41
2018-12-09T11:23:25.825Z,97705.39
2018-12-09T11:25:03.821Z,97716.22
2018-12-09T11:26:41.115Z,97715.48
2018-12-09T11:28:18.440Z,97712.34
2018-12-09T11:29:57.854Z,97705.01
2018-12-09T11:31:36.743Z,97722.07
2018-12-09T11:33:12.486Z,97716.84
2018-12-09T11:34:49.448Z,97719.16
2018-12-09T11:36:30.297Z,97711.02
2018-12-09T11:38:05.701Z,97730.80
2018-12-09T11:39:42.684Z,97714.31
2018-12-09T11:41:23.355Z,97718.80
2018-12-09T11:43:00.590Z,97723.81
2018-12-09T11:44:37.969Z,97733.31
2018-12-09T11:46:13.439Z,97719.39
2018-12-09T11:47:50.640Z,97729.66
2018-12-09T11:49:26.509Z,97719.00
2018-12-09T11:51:02.106Z,97723.66
2018-12-09T11:52:39.354Z,97723.84
2018-12-09T11:54:18.578Z,97725.01
2018-12-09T11:55:54.624Z,97724.98
2018-12-09T11:57:31.682Z,97719.00
2018-12-09T11:59:13.355Z,97729.05
2018-12-09T12:01:02.211Z,97723.45
2018-12-09T12:02:42.109Z,97723.45
2018-12-09T12:04:23.614Z,97722.30
2018-12-09T12:05:59.525Z,97755.25
2018-12-09T12:07:37.066Z,97777.34
2018-12-09T12:09:16.904Z,97707.22
2018-12-09T12:10:53.340Z,97697.07
2018-12-09T12:12:29.586Z,97668.52
2018-12-09T12:14:06.463Z,97637.96
2018-12-09T12:15:46.258Z,97624.73
2018-12-09T12:17:22.577Z,97623.50
2018-12-09T12:20:42.206Z,97635.50
2018-12-09T12:22:19.128Z,97643.23
2018-12-09T12:25:37.295Z,97648.03
2018-12-09T12:27:14.114Z,97645.91
2018-12-09T12:28:49.507Z,97643.20
2018-12-09T12:30:26.183Z,97643.78
2018-12-09T12:32:05.989Z,97638.37
2018-12-09T12:33:45.429Z,97642.22
2018-12-09T12:35:22.946Z,97643.58
2018-12-09T12:36:58.395Z,97639.12
2018-12-09T12:38:39.233Z,97631.78
2018-12-09T12:40:18.253Z,97636.98
2018-12-09T12:41:56.046Z,97639.12
2018-12-09T12:43:33.099Z,97648.03
2018-12-09T12:45:12.867Z,97637.02
2018-12-09T12:46:50.873Z,97635.12
2018-12-09T12:48:28.243Z,97632.02
2018-12-09T12:50:05.491Z,97631.81
2018-12-09T12:51:42.587Z,97634.75
2018-12-09T12:53:18.248Z,97634.58
2018-12-09T12:54:55.324Z,97641.97
2018-12-09T12:56:34.472Z,97647.98
2018-12-09T12:58:10.779Z,97653.96
2018-12-09T12:59:46.794Z,97660.78
2018-12-09T13:01:22.765Z,97670.44
2018-12-09T13:03:05.572Z,97675.87
2018-12-09T13:04:43.292Z,97666.41
2018-12-09T13:06:21.371Z,97676.08
2018-12-09T13:08:02.600Z,97684.42
2018-12-09T13:09:41.705Z,97686.95
2018-12-09T13:11:24.191Z,97692.36
2018-12-09T13:13:06.743Z,97699.13
2018-12-09T13:14:50.964Z,97701.05
2018-12-09T13:16:33.377Z,97710.20
2018-12-09T13:18:13.442Z,97708.82
2018-12-09T13:19:51.104Z,97717.48
2018-12-09T13:21:30.441Z,97721.37
2018-12-09T13:23:09.793Z,97736.08
2018-12-09T13:24:54.031Z,97733.95
2018-12-09T13:26:33.031Z,97735.50
2018-12-09T13:28:12.813Z,97738.75
2018-12-09T13:29:52.332Z,97745.17
2018-12-09T13:31:30.693Z,97746.70
2018-12-09T13:33:11.410Z,97748.83
2018-12-09T13:34:53.775Z,97750.38
2018-12-09T13:36:33.334Z,97756.77
2018-12-09T13:38:13.056Z,97765.88
2018-12-09T13:39:53.248Z,97757.55
2018-12-09T13:41:31.030Z,97764.52
2018-12-09T13:43:06.668Z,97762.59
2018-12-09T13:44:42.702Z,97770.30
2018-12-09T13:46:21.497Z,97776.69
2018-12-09T13:47:58.722Z,97780.20
2018-12-09T13:49:36.596Z,97788.36
2018-12-09T13:51:23.592Z,97793.59
2018-12-09T13:53:00.201Z,97795.92
2018-12-09T13:54:37.340Z,97801.54
2018-12-09T13:56:12.992Z,97807.56
2018-12-09T13:57:53.670Z,97819.19
2018-12-09T13:59:32.577Z,97820.14
2018-12-09T14:01:14.270Z,97824.81
2018-12-09T14:03:00.284Z,97831.43
2018-12-09T14:04:35.604Z,97835.49
2018-12-09T14:06:13.570Z,97842.66
2018-12-09T14:07:54.254Z,97847.33
2018-12-09T14:09:30.803Z,97845.80
2018-12-09T14:11:09.901Z,97859.37
2018-12-09T14:12:45.774Z,97865.77
2018-12-09T14:14:24.294Z,97871.98
2018-12-09T14:16:08.317Z,97870.05
2018-12-09T14:17:46.665Z,97880.31
2018-12-09T14:19:24.105Z,97890.39
2018-12-09T14:21:05.838Z,97889.62
2018-12-09T14:22:46.118Z,97902.03
2018-12-09T14:24:23.815Z,97912.90
2018-12-09T14:26:03.881Z,97927.59
2018-12-09T14:27:42.737Z,97927.63
2018-12-09T14:29:20.130Z,97942.16
2018-12-09T14:31:01.166Z,97946.25
2018-12-09T14:32:43.625Z,97955.93
2018-12-09T14:34:21.092Z,97963.08
2018-12-09T14:36:06.096Z,97963.08
2018-12-09T14:37:49.013Z,97976.45
2018-12-09T14:39:28.776Z,97983.63
2018-12-09T14:41:06.418Z,97994.88
2018-12-09T14:42:48.246Z,98000.30
2018-12-09T14:44:26.892Z,98013.10
2018-12-09T14:46:11.012Z,98025.70
2018-12-09T14:47:50.839Z,98029.20
2018-12-09T14:49:27.472Z,98050.27
2018-12-09T14:51:05.475Z,98049.32
2018-12-09T14:52:44.070Z,98061.92
2018-12-09T14:54:22.760Z,98066.57
2018-12-09T14:56:00.022Z,98063.08
2018-12-09T14:57:36.543Z,98073.17
2018-12-09T14:59:15.172Z,98085.17
2018-12-09T15:00:55.262Z,98091.58
2018-12-09T15:02:32.715Z,98097.77
2018-12-09T15:04:11.439Z,98105.94
2018-12-09T15:07:38.330Z,98121.83
2018-12-09T15:09:20.538Z,98124.34
2018-12-09T15:11:09.136Z,98119.70
2018-12-09T15:12:49.488Z,98121.64
2018-12-09T15:14:26.049Z,98130.92
2018-12-09T15:16:04.680Z,98130.55
2018-12-09T15:17:41.008Z,98135.77
2018-12-09T15:19:19.280Z,98141.19
2018-12-09T15:20:56.136Z,98147.19
2018-12-09T15:22:32.946Z,98152.81
2018-12-09T15:24:10.509Z,98158.03
2018-12-09T15:25:48.552Z,98155.90
2018-12-09T15:27:24.986Z,98161.89
2018-12-09T15:29:03.098Z,98160.75
2018-12-09T15:30:41.460Z,98156.47
2018-12-09T15:32:20.265Z,98159.39
2018-12-09T15:33:58.874Z,98172.58
2018-12-09T15:35:36.785Z,98178.57
2018-12-09T15:37:12.460Z,98169.09
2018-12-09T15:38:50.099Z,98171.22
2018-12-09T15:40:27.894Z,98178.78
2018-12-09T15:42:05.496Z,98182.06
2018-12-09T15:43:42.262Z,98191.59
2018-12-09T15:45:19.395Z,98200.70
2018-12-09T15:46:55.898Z,98208.47
2018-12-09T15:48:39.150Z,98210.03
2018-12-09T15:50:16.148Z,98221.45
2018-12-09T15:51:53.263Z,98232.09
2018-12-09T15:53:28.837Z,98234.97
2018-12-09T15:55:07.446Z,98234.20
2018-12-09T15:56:42.628Z,98221.95
2018-12-09T15:58:19.935Z,98245.78
2018-12-09T15:59:58.526Z,98233.95
2018-12-09T16:01:34.619Z,98249.64
2018-12-09T16:03:11.074Z,98221.56
2018-12-09T16:04:46.404Z,98223.44
2018-12-09T16:06:23.263Z,98235.84
2018-12-09T16:08:01.127Z,98228.60
2018-12-09T16:09:39.156Z,98234.33
2018-12-09T16:11:18.183Z,98251.17
2018-12-09T16:12:54.683Z,98256.80
2018-12-09T16:14:38.645Z,98264.24
2018-12-09T16:16:14.681Z,98261.39
2018-12-09T16:17:54.834Z,98270.34
2018-12-09T16:19:38.588Z,98269.45
2018-12-09T16:21:16.940Z,98278.57
2018-12-09T16:22:54.375Z,98274.68
2018-12-09T16:24:34.612Z,98276.28
2018-12-09T16:26:11.497Z,98274.77
2018-12-09T16:27:47.531Z,98283.31
2018-12-09T16:29:23.934Z,98283.73
2018-12-09T16:31:00.687Z,98284.89
2018-12-09T16:32:37.423Z,98301.78
2018-12-09T16:34:16.742Z,98296.19
2018-12-09T16:35:53.454Z,98309.22
2018-12-09T16:37:31.074Z,98316.58
2018-12-09T16:39:11.524Z,98303.02
2018-12-09T16:40:51.796Z,98314.06
2018-12-09T16:42:31.609Z,98322.98
2018-12-09T16:44:13.562Z,98334.41
2018-12-09T16:45:51.216Z,98332.27
2018-12-09T16:47:27.046Z,98333.99
2018-12-09T16:49:04.830Z,98343.27
2018-12-09T16:50:41.604Z,98355.84
2018-12-09T16:52:17.287Z,98340.73
2018-12-09T16:53:53.633Z,98355.64
2018-12-09T16:55:32.638Z,98357.73
2018-12-09T16:57:09.194Z,98359.09
2018-12-09T16:58:46.651Z,98364.51
2018-12-09T17:00:24.256Z,98373.01
2018-12-09T17:02:01.508Z,98369.72
2018-12-09T17:03:40.533Z,98385.21
2018-12-09T17:05:18.673Z,98390.27
2018-12-09T17:06:55.457Z,98395.48
2018-12-09T17:08:31.556Z,98386.77
2018-12-09T17:10:12.424Z,98399.76
2018-12-09T17:11:49.457Z,98399.13
2018-12-09T17:13:28.409Z,98409.82
2018-12-09T17:15:13.232Z,98401.69
2018-12-09T17:16:52.425Z,98400.70
2018-12-09T17:18:30.206Z,98391.98
2018-12-09T17:20:09.938Z,98404.40
2018-12-09T17:21:48.168Z,98408.47
2018-12-09T17:23:24.230Z,98405.75
2018-12-09T17:26:54.302Z,98422.23
2018-12-09T17:28:32.831Z,98411.02
2018-12-09T17:30:10.091Z,98411.23
2018-12-09T17:31:50.797Z,98419.56
2018-12-09T17:33:28.321Z,98430.98
2018-12-09T17:35:07.447Z,98428.07
2018-12-09T17:36:49.194Z,98424.78
2018-12-09T17:38:26.686Z,98432.71
2018-12-09T17:40:04.530Z,98437.92
2018-12-09T17:41:41.283Z,98431.72
2018-12-09T17:43:17.313Z,98437.14
2018-12-09T17:44:54.513Z,98432.09
2018-12-09T17:46:35.281Z,98438.08
2018-12-09T17:48:13.558Z,98432.66
2018-12-09T17:49:50.461Z,98449.50
2018-12-09T17:51:30.108Z,98450.28
2018-12-09T17:53:07.992Z,98456.48
2018-12-09T17:54:46.712Z,98456.28
2018-12-09T17:56:26.432Z,98448.54
2018-12-09T17:58:11.465Z,98452.61
2018-12-09T17:59:48.071Z,98452.61
2018-12-09T18:01:26.412Z,98436.91
2018-12-09T18:03:03.169Z,98452.40
2018-12-09T18:04:40.763Z,98449.11
2018-12-09T18:06:17.332Z,98450.27
2018-12-09T18:07:54.961Z,98447.34
2018-12-09T18:09:35.208Z,98440.56
2018-12-09T18:11:17.150Z,98447.19
2018-12-09T18:13:11.505Z,98461.68
2018-12-09T18:16:43.332Z,98454.06
2018-12-09T18:18:28.144Z,98454.64
2018-12-09T18:20:08.845Z,98448.80
2018-12-09T18:21:48.590Z,98449.79
2018-12-09T18:23:29.301Z,98461.20
2018-12-09T18:25:06.209Z,98454.80
2018-12-09T18:26:52.624Z,98457.87
2018-12-09T18:28:30.503Z,98469.49
2018-12-09T18:30:09.659Z,98466.78
2018-12-09T18:31:51.635Z,98459.44
2018-12-09T18:33:31.564Z,98464.48
2018-12-09T18:35:07.909Z,98470.85
2018-12-09T18:36:48.134Z,98481.91
2018-12-09T18:38:30.707Z,98475.70
2018-12-09T18:40:11.338Z,98468.92
2018-12-09T18:41:50.612Z,98474.70
2018-12-09T18:43:28.109Z,98472.39
2018-12-09T18:45:08.495Z,98468.32
2018-12-09T18:46:46.982Z,98486.70
2018-12-09T18:48:28.688Z,98477.03
2018-12-09T18:50:17.177Z,98484.37
2018-12-09T18:51:56.899Z,98470.41
2018-12-09T18:53:33.519Z,98477.18
2018-12-09T18:55:13.203Z,98490.31
2018-12-09T18:56:50.909Z,98480.05
2018-12-09T18:58:31.641Z,98478.63
2018-12-09T19:00:13.056Z,98471.28
2018-12-09T19:01:51.545Z,98487.75
2018-12-09T19:03:33.494Z,98481.34
2018-12-09T19:05:12.783Z,98479.35
2018-12-09T19:06:49.745Z,98478.97
2018-12-09T19:08:28.332Z,98480.68
2018-12-09T19:10:07.351Z,98486.88
2018-12-09T19:11:45.243Z,98484.33
2018-12-09T19:13:26.348Z,98480.41
2018-12-09T19:15:08.793Z,98483.33
2018-12-09T19:16:46.356Z,98467.59
2018-12-09T19:18:25.327Z,98470.87
2018-12-09T19:20:03.237Z,98455.00
2018-12-09T19:21:43.689Z,98462.92
2018-12-09T19:23:21.853Z,98448.95
2018-12-09T19:25:02.537Z,98438.89
2018-12-09T19:26:44.340Z,98443.53
2018-12-09T19:28:23.791Z,98440.46
2018-12-09T19:30:08.702Z,98421.44
2018-12-09T19:31:51.306Z,98426.28
2018-12-09T19:33:29.910Z,98435.98
2018-12-09T19:35:06.538Z,98411.74
2018-12-09T19:36:44.258Z,98414.24
2018-12-09T19:38:31.671Z,98416.95
2018-12-09T19:40:16.719Z,98405.70
2018-12-09T19:41:57.552Z,98396.22
2018-12-09T19:43:39.308Z,98392.93
2018-12-09T19:45:22.525Z,98394.44
2018-12-09T19:47:01.095Z,98389.59
2018-12-09T19:48:40.971Z,98384.75
2018-12-09T19:50:18.745Z,98377.97
2018-12-09T19:53:52.331Z,98369.27
2018-12-09T19:55:29.426Z,98354.20
2018-12-09T19:57:08.435Z,98351.28
2018-12-09T19:58:45.059Z,98359.77
2018-12-09T20:00:28.791Z,98369.25
2018-12-09T20:02:05.533Z,98357.84
2018-12-09T20:03:47.263Z,98329.39
2018-12-09T20:05:24.753Z,98320.70
2018-12-09T20:07:07.197Z,98331.69
2018-12-09T20:08:43.742Z,98310.59
2018-12-09T20:10:19.378Z,98311.73
2018-12-09T20:11:56.926Z,98290.22
2018-12-09T20:13:32.272Z,98279.39
2018-12-09T20:15:19.305Z,98282.88
2018-12-09T20:16:57.231Z,98268.97
2018-12-09T20:18:35.185Z,98269.95
2018-12-09T20:20:16.727Z,98250.79
2018-12-09T20:21:54.536Z,98252.92
2018-12-09T20:23:31.134Z,98254.44
2018-12-09T20:25:07.676Z,98231.36